There are no active watches, warnings or advisories


Thunder radar more information blitzortung!


Rain radar more information rain snow radar


Visit our other weather sites:

Template documentation
and downloads

And another site



Weather Underground History page Text

Daily Summary for February 24, 2018 Units:  English    Metric   Both
« Previous Day
Next Day »
Daily Weekly Monthly Yearly Custom
  Current: High: Low: Average:
Temperature: 35.6 °F TemperatureF °F 19.4 °F 23.7 °F
Dew Point: 29.7 °F DewpointF °F 18.4 °F 21.8 °F
Humidity: 79 % Humidity % 79 % 92 %
Wind Speed: 7.7 mph WindSpeedMPH mph 0.0 mph 2.6 mph
Wind Gust: 13.2 mph WindSpeedGustMPH mph - -
Wind:ESE - - SE
Pressure: 30.03 in PressureIn in 30.03 in -
Precipitation: 0.00 in      
Historical Graphs
 
 
Tabular Data for February 24, 2018
Time Temperature Dew Point Pressure Wind Wind Speed Wind Gust Humidity Rainfall Rate (Hourly)
TemperatureF °F DewpointF °F PressureIn in Calm     Humidity % HourlyPrecipIn in
00:03 25.1 °F 22.3 °F 30.27 in NNW 0.9 mph 1.2 mph 89 % 0.00 in
00:08 25.0 °F 22.2 °F 30.27 in Calm     89 % 0.00 in
00:14 24.9 °F 22.1 °F 30.27 in NNW 0.9 mph 1.2 mph 89 % 0.00 in
00:19 24.8 °F 22.3 °F 30.27 in NNW 0.6 mph 1.2 mph 90 % 0.00 in
00:24 24.7 °F 22.2 °F 30.27 in Calm     90 % 0.00 in
00:29 24.5 °F 22.0 °F 30.27 in Calm     90 % 0.00 in
00:34 24.4 °F 21.9 °F 30.27 in Calm     90 % 0.00 in
00:39 24.3 °F 21.8 °F 30.27 in Calm     90 % 0.00 in
00:44 24.2 °F 22.0 °F 30.27 in Calm   1.2 mph 91 % 0.00 in
00:49 24.2 °F 22.0 °F 30.27 in Calm   1.2 mph 91 % 0.00 in
00:54 24.1 °F 22.1 °F 30.27 in Calm     92 % 0.00 in
00:59 24.0 °F 22.0 °F 30.27 in Calm     92 % 0.00 in
01:04 23.9 °F 21.9 °F 30.27 in Calm     92 % 0.00 in
01:09 23.8 °F 21.8 °F 30.27 in Calm     92 % 0.00 in
01:15 23.6 °F 21.6 °F 30.27 in Calm     92 % 0.00 in
01:20 23.5 °F 21.5 °F 30.27 in Calm     92 % 0.00 in
01:25 23.3 °F 21.3 °F 30.27 in Calm     92 % 0.00 in
01:30 23.1 °F 21.1 °F 30.27 in Calm     92 % 0.00 in
01:35 23.1 °F 21.1 °F 30.26 in Calm     92 % 0.00 in
01:40 23.0 °F 21.0 °F 30.26 in Calm     92 % 0.00 in
01:43 22.9 °F 20.9 °F 30.26 in Calm     92 % 0.00 in
01:48 22.8 °F 21.1 °F 30.26 in NNW 1.0 mph 1.2 mph 93 % 0.00 in
01:53 22.7 °F 21.0 °F 30.26 in NNW 0.6 mph 1.2 mph 93 % 0.00 in
01:59 22.6 °F 20.9 °F 30.26 in Calm     93 % 0.00 in
02:04 22.5 °F 20.8 °F 30.26 in Calm     93 % 0.00 in
02:09 22.4 °F 20.9 °F 30.26 in Calm   1.2 mph 94 % 0.00 in
02:14 22.2 °F 20.7 °F 30.26 in NNW 1.0 mph 1.2 mph 94 % 0.00 in
02:19 22.2 °F 20.7 °F 30.26 in NNW 0.8 mph 1.2 mph 94 % 0.00 in
02:24 22.1 °F 20.6 °F 30.26 in NNW 0.7 mph 1.2 mph 94 % 0.00 in
02:29 22.1 °F 20.6 °F 30.26 in Calm     94 % 0.00 in
02:34 22.1 °F 20.6 °F 30.25 in Calm     94 % 0.00 in
02:39 22.1 °F 20.6 °F 30.26 in Calm     94 % 0.00 in
02:44 21.8 °F 20.3 °F 30.25 in Calm     94 % 0.00 in
02:49 21.8 °F 20.6 °F 30.25 in Calm     95 % 0.00 in
02:54 21.8 °F 20.6 °F 30.25 in Calm     95 % 0.00 in
02:59 21.7 °F 20.5 °F 30.24 in Calm     95 % 0.00 in
03:02 21.7 °F 20.5 °F 30.24 in Calm     95 % 0.00 in
03:07 21.5 °F 20.3 °F 30.24 in Calm     95 % 0.00 in
03:12 21.3 °F 20.1 °F 30.23 in Calm     95 % 0.00 in
03:17 21.2 °F 20.0 °F 30.23 in Calm     95 % 0.00 in
03:22 21.2 °F 20.0 °F 30.23 in Calm     95 % 0.00 in
03:28 21.1 °F 19.9 °F 30.22 in Calm     95 % 0.00 in
03:33 21.1 °F 19.9 °F 30.22 in Calm     95 % 0.00 in
03:38 21.1 °F 19.9 °F 30.22 in Calm     95 % 0.00 in
03:43 21.1 °F 19.9 °F 30.21 in Calm     95 % 0.00 in
03:48 21.1 °F 19.9 °F 30.21 in Calm     95 % 0.00 in
03:53 21.0 °F 20.0 °F 30.21 in Calm     96 % 0.00 in
03:58 21.0 °F 20.0 °F 30.21 in Calm     96 % 0.00 in
04:03 20.8 °F 19.8 °F 30.21 in Calm     96 % 0.00 in
04:08 20.5 °F 19.3 °F 30.21 in Calm     95 % 0.00 in
04:13 20.5 °F 19.3 °F 30.21 in Calm     95 % 0.00 in
04:18 20.5 °F 19.3 °F 30.20 in Calm     95 % 0.00 in
04:23 20.5 °F 19.3 °F 30.20 in Calm     95 % 0.00 in
04:28 20.4 °F 19.2 °F 30.20 in Calm     95 % 0.00 in
04:33 20.3 °F 19.1 °F 30.20 in Calm     95 % 0.00 in
04:38 20.3 °F 19.3 °F 30.20 in Calm     96 % 0.00 in
04:43 20.3 °F 19.3 °F 30.20 in Calm     96 % 0.00 in
04:49 20.3 °F 19.3 °F 30.20 in Calm     96 % 0.00 in
04:54 20.4 °F 19.4 °F 30.20 in Calm     96 % 0.00 in
04:59 20.4 °F 19.4 °F 30.20 in Calm     96 % 0.00 in
05:04 20.4 °F 19.4 °F 30.20 in Calm     96 % 0.00 in
05:09 20.4 °F 19.4 °F 30.19 in Calm     96 % 0.00 in
05:14 20.4 °F 19.4 °F 30.19 in Calm     96 % 0.00 in
05:19 20.3 °F 19.3 °F 30.19 in Calm     96 % 0.00 in
05:24 20.2 °F 19.2 °F 30.19 in Calm     96 % 0.00 in
05:29 20.1 °F 19.1 °F 30.19 in Calm     96 % 0.00 in
05:34 20.0 °F 19.0 °F 30.19 in Calm     96 % 0.00 in
05:39 20.0 °F 19.0 °F 30.18 in Calm     96 % 0.00 in
05:44 20.0 °F 19.0 °F 30.18 in Calm     96 % 0.00 in
05:49 20.0 °F 19.0 °F 30.18 in Calm     96 % 0.00 in
05:54 19.9 °F 18.9 °F 30.18 in Calm     96 % 0.00 in
05:59 19.9 °F 18.9 °F 30.18 in Calm     96 % 0.00 in
06:05 19.8 °F 18.8 °F 30.18 in Calm     96 % 0.00 in
06:10 19.7 °F 18.7 °F 30.18 in Calm     96 % 0.00 in
06:15 19.6 °F 18.6 °F 30.18 in Calm     96 % 0.00 in
06:20 19.4 °F 18.4 °F 30.17 in Calm     96 % 0.00 in
06:25 19.4 °F 18.4 °F 30.17 in Calm     96 % 0.00 in
06:30 19.4 °F 18.4 °F 30.17 in Calm     96 % 0.00 in
06:35 19.5 °F 18.5 °F 30.17 in North 0.1 mph 1.2 mph 96 % 0.00 in
06:40 19.6 °F 18.6 °F 30.17 in North 1.6 mph 2.3 mph 96 % 0.00 in
06:45 19.8 °F 18.8 °F 30.16 in NNE 3.0 mph 3.5 mph 96 % 0.00 in
06:50 20.0 °F 19.0 °F 30.16 in NE 4.0 mph 4.0 mph 96 % 0.00 in
06:55 20.0 °F 19.0 °F 30.16 in NE 3.8 mph 4.6 mph 96 % 0.00 in
07:01 20.1 °F 19.1 °F 30.16 in NE 5.1 mph 5.1 mph 96 % 0.00 in
07:06 20.1 °F 19.1 °F 30.16 in NE 2.6 mph 3.5 mph 96 % 0.00 in
07:11 20.1 °F 19.1 °F 30.16 in NE 1.3 mph 2.3 mph 96 % 0.00 in
07:16 20.1 °F 19.1 °F 30.16 in NE 1.0 mph 1.2 mph 96 % 0.00 in
07:21 20.2 °F 19.2 °F 30.16 in NE 1.8 mph 3.5 mph 96 % 0.00 in
07:26 20.2 °F 19.2 °F 30.16 in NE 2.1 mph 2.4 mph 96 % 0.00 in
07:31 20.3 °F 19.3 °F 30.16 in NE 1.1 mph 1.2 mph 96 % 0.00 in
07:36 20.5 °F 19.5 °F 30.16 in NE 1.9 mph 3.5 mph 96 % 0.00 in
07:41 20.7 °F 19.7 °F 30.17 in NE 2.2 mph 3.5 mph 96 % 0.00 in
07:46 20.8 °F 19.8 °F 30.17 in NE 1.8 mph 2.4 mph 96 % 0.00 in
07:51 21.1 °F 20.1 °F 30.16 in NE 3.3 mph 3.5 mph 96 % 0.00 in
07:56 21.5 °F 20.5 °F 30.16 in NE 0.5 mph 2.4 mph 96 % 0.00 in
08:02 22.0 °F 21.0 °F 30.16 in NE 4.2 mph 4.2 mph 96 % 0.00 in
08:07 22.3 °F 21.3 °F 30.15 in NE 2.0 mph 5.0 mph 96 % 0.00 in
08:12 22.7 °F 21.7 °F 30.15 in NE 3.3 mph 3.6 mph 96 % 0.00 in
08:17 23.1 °F 22.1 °F 30.14 in NE 1.8 mph 2.4 mph 96 % 0.00 in
08:22 23.5 °F 22.5 °F 30.15 in NE 2.0 mph 2.4 mph 96 % 0.00 in
08:27 24.0 °F 23.0 °F 30.15 in ESE 3.3 mph 4.8 mph 96 % 0.00 in
08:32 24.6 °F 23.6 °F 30.15 in SE 3.9 mph 4.6 mph 96 % 0.00 in
08:37 25.0 °F 24.0 °F 30.16 in SE 6.0 mph 8.1 mph 96 % 0.00 in
08:42 25.5 °F 24.5 °F 30.15 in East 5.6 mph 8.4 mph 96 % 0.00 in
08:47 26.0 °F 24.8 °F 30.15 in East 4.4 mph 7.2 mph 95 % 0.00 in
08:52 26.7 °F 25.5 °F 30.15 in SSE 3.9 mph 4.8 mph 95 % 0.00 in
08:57 27.4 °F 25.6 °F 30.15 in ESE 1.2 mph 6.9 mph 93 % 0.00 in
09:02 27.6 °F 25.8 °F 30.15 in SE 6.5 mph 10.8 mph 93 % 0.00 in
09:07 27.8 °F 25.8 °F 30.15 in SSE 6.0 mph 9.2 mph 92 % 0.00 in
09:12 28.1 °F 26.1 °F 30.15 in SSE 7.8 mph 7.8 mph 92 % 0.00 in
09:18 28.1 °F 26.1 °F 30.15 in ESE 11.5 mph 11.5 mph 92 % 0.00 in
09:23 28.5 °F 26.2 °F 30.14 in ENE 8.2 mph 15.0 mph 91 % 0.00 in
09:28 29.0 °F 26.4 °F 30.14 in ESE 5.4 mph 10.4 mph 90 % 0.00 in
09:33 29.1 °F 26.3 °F 30.15 in SE 9.3 mph 12.7 mph 89 % 0.00 in
09:38 29.2 °F 26.4 °F 30.14 in SSE 11.4 mph 15.0 mph 89 % 0.00 in
09:43 29.5 °F 26.7 °F 30.14 in SE 9.0 mph 9.2 mph 89 % 0.00 in
09:48 29.6 °F 26.5 °F 30.14 in ESE 10.2 mph 17.3 mph 88 % 0.00 in
09:53 29.9 °F 26.8 °F 30.14 in ESE 7.3 mph 11.5 mph 88 % 0.00 in
09:58 29.7 °F 26.3 °F 30.14 in SE 10.8 mph 16.1 mph 87 % 0.00 in
10:03 29.9 °F 26.5 °F 30.14 in SE 7.0 mph 10.4 mph 87 % 0.00 in
10:08 29.8 °F 26.4 °F 30.13 in South 7.4 mph 11.5 mph 87 % 0.00 in
10:13 29.8 °F 26.4 °F 30.13 in East 8.9 mph 16.8 mph 87 % 0.00 in
10:19 29.9 °F 26.5 °F 30.12 in ESE 6.3 mph 8.1 mph 87 % 0.00 in
10:24 30.0 °F 26.6 °F 30.12 in South 10.1 mph 12.7 mph 87 % 0.00 in
10:29 30.7 °F 27.0 °F 30.11 in SE 7.2 mph 8.1 mph 86 % 0.00 in
10:34 30.6 °F 26.9 °F 30.11 in SE 7.5 mph 9.2 mph 86 % 0.00 in
10:39 30.9 °F 27.2 °F 30.10 in East 9.5 mph 15.6 mph 86 % 0.00 in
10:44 31.2 °F 27.2 °F 30.10 in SSE 10.0 mph 12.7 mph 85 % 0.00 in
10:49 31.8 °F 27.8 °F 30.09 in SSE 7.4 mph 8.1 mph 85 % 0.00 in
10:54 31.9 °F 27.9 °F 30.08 in SSE 10.7 mph 16.1 mph 85 % 0.00 in
10:59 32.1 °F 27.8 °F 30.08 in SE 12.4 mph 17.3 mph 84 % 0.00 in
11:04 32.4 °F 27.8 °F 30.07 in East 10.3 mph 15.0 mph 83 % 0.00 in
11:09 33.1 °F 28.5 °F 30.06 in East 9.4 mph 14.4 mph 83 % 0.00 in
11:14 32.8 °F 28.2 °F 30.06 in East 11.0 mph 14.4 mph 83 % 0.00 in
11:19 33.4 °F 28.8 °F 30.06 in East 6.8 mph 8.4 mph 83 % 0.00 in
11:25 34.3 °F 29.4 °F 30.04 in ESE 8.5 mph 10.4 mph 82 % 0.00 in
11:30 35.0 °F 29.8 °F 30.05 in South 8.2 mph 9.2 mph 81 % 0.00 in
11:35 34.8 °F 29.0 °F 30.03 in SE 10.8 mph 16.8 mph 79 % 0.00 in
11:40 35.6 °F 29.7 °F 30.03 in ESE 7.7 mph 13.2 mph 79 % 0.00 in
Sunset Mountain, Asheville NC USA
Compliments of Weather Underground - 4 mb

Script developed by  Jim McMurry - jmcmurry@mwt.net Adapted for the template by  Wim van der Kuil - Leuven-Template.eu

You find our weather info also at:


Weather Underground

AWEKAS

Citizen Weather Observer Program (CWOP)

HAMweather, WeatherForYou, PWS Weather

Equipment we use:


Weather-station
Davis VP2

Weather-program
Weather Display

Weather-server
Dell Poweredge SC420

Provider
1&1

Davis VP2

Weather Display

Dell Poweredge SC420

1&1